Time;durP1;ratioP1;P1;durP2;ratioP2;P2;SDS_P1;SDS_P2;PMS_P1;PMS_P2;Temp;Humidity;BMP_temperature;BMP_pressure;BME280_temperature;BME280_humidity;BME280_pressure;Samples;Min_cycle;Max_cycle;Signal;HPM_P1;HPM_P2
2023/06/09 00:01:22;;;;;;;9.53;7.37;;;15.80;99.90;;;;;;5053296;28;20640;-77
2023/06/09 00:03:50;;;;;;;9.87;7.40;;;15.80;99.90;;;;;;5051748;28;20603;-77
2023/06/09 00:06:18;;;;;;;8.33;7.20;;;15.80;99.90;;;;;;5051265;28;20452;-78
2023/06/09 00:08:44;;;;;;;8.90;7.20;;;15.80;99.90;;;;;;5053005;28;20456;-77
2023/06/09 00:11:10;;;;;;;7.93;7.13;;;15.80;99.90;;;;;;5050338;28;20437;-77
2023/06/09 00:13:35;;;;;;;8.43;6.87;;;15.80;99.90;;;;;;5051961;28;20190;-78
2023/06/09 00:16:01;;;;;;;8.13;6.33;;;15.80;99.90;;;;;;5051926;28;20468;-77
2023/06/09 00:18:26;;;;;;;7.33;6.67;;;15.80;99.90;;;;;;5052219;28;20228;-75
2023/06/09 00:20:52;;;;;;;7.60;6.83;;;15.80;99.90;;;;;;5050441;28;20236;-77
2023/06/09 00:23:17;;;;;;;8.40;7.20;;;15.70;99.90;;;;;;5050579;28;20285;-77
2023/06/09 00:25:43;;;;;;;8.17;7.37;;;15.70;99.90;;;;;;5050657;28;20643;-77
2023/06/09 00:28:11;;;;;;;7.57;6.97;;;15.70;99.90;;;;;;5051920;28;20167;-77
2023/06/09 00:30:37;;;;;;;7.43;6.40;;;15.70;99.90;;;;;;5048993;28;20177;-77
2023/06/09 00:33:02;;;;;;;8.57;7.67;;;15.70;99.90;;;;;;5051715;28;20425;-75
2023/06/09 00:35:28;;;;;;;7.00;6.40;;;15.60;99.90;;;;;;5051673;28;20285;-75
2023/06/09 00:37:53;;;;;;;7.67;6.70;;;15.60;99.90;;;;;;5051694;28;20620;-75
2023/06/09 00:40:21;;;;;;;7.93;7.17;;;15.60;99.90;;;;;;5051576;28;20174;-75
2023/06/09 00:42:47;;;;;;;7.17;6.53;;;15.60;99.90;;;;;;5050289;28;20256;-75
2023/06/09 00:45:14;;;;;;;6.60;6.00;;;15.60;99.90;;;;;;5051563;28;21096;-75
2023/06/09 00:47:40;;;;;;;7.60;6.80;;;15.60;99.90;;;;;;5051595;28;20320;-75
2023/06/09 00:50:06;;;;;;;6.87;5.67;;;15.60;99.90;;;;;;5051704;28;20418;-75
2023/06/09 00:52:32;;;;;;;8.17;6.90;;;15.60;99.90;;;;;;5053304;28;20452;-75
2023/06/09 00:54:58;;;;;;;6.73;6.13;;;15.60;99.90;;;;;;5054161;28;20484;-75
2023/06/09 00:57:24;;;;;;;7.40;6.60;;;15.60;99.90;;;;;;5055579;28;20167;-75
2023/06/09 00:59:49;;;;;;;8.23;7.43;;;15.60;99.90;;;;;;5055478;28;20835;-75
2023/06/09 01:02:15;;;;;;;7.60;6.90;;;15.60;99.90;;;;;;5053827;28;20524;-75
2023/06/09 01:04:49;;;;;;;8.50;7.63;;;15.60;99.90;;;;;;5055389;28;20171;-75
2023/06/09 01:07:28;;;;;;;8.50;7.60;;;15.60;99.90;;;;;;5054107;28;20178;-75
2023/06/09 01:10:11;;;;;;;10.83;7.83;;;15.60;99.90;;;;;;5055330;28;20921;-75
2023/06/09 01:13:02;;;;;;;7.80;7.00;;;15.60;99.90;;;;;;5054749;28;20425;-75
2023/06/09 01:15:33;;;;;;;8.23;7.43;;;15.60;99.90;;;;;;5055117;28;20853;-74
2023/06/09 01:18:03;;;;;;;10.70;8.53;;;15.50;99.90;;;;;;5055055;28;20488;-75
2023/06/09 01:20:38;;;;;;;7.57;6.83;;;15.40;99.90;;;;;;5054821;28;20428;-75
2023/06/09 01:23:25;;;;;;;9.63;8.63;;;15.40;99.90;;;;;;5055058;28;20925;-75
2023/06/09 01:25:52;;;;;;;7.83;7.13;;;15.40;99.90;;;;;;5055063;28;20429;-75
2023/06/09 01:28:24;;;;;;;10.20;8.37;;;15.30;99.90;;;;;;5053635;28;20410;-75
2023/06/09 01:30:51;;;;;;;8.70;7.20;;;15.30;99.90;;;;;;5054381;28;20462;-75
2023/06/09 01:33:25;;;;;;;9.67;8.70;;;15.30;99.90;;;;;;5052872;28;20448;-75
2023/06/09 01:35:52;;;;;;;9.10;8.20;;;15.20;99.90;;;;;;5054754;28;20457;-74
2023/06/09 01:38:24;;;;;;;8.70;7.80;;;15.20;99.90;;;;;;5054903;28;20813;-75
2023/06/09 01:40:50;;;;;;;10.90;9.40;;;15.10;99.90;;;;;;5053158;28;20455;-74
2023/06/09 01:43:17;;;;;;;13.10;11.10;;;15.10;99.90;;;;;;5054508;28;20424;-74
2023/06/09 01:45:42;;;;;;;12.10;10.40;;;15.00;99.90;;;;;;5054560;28;20412;-74
2023/06/09 01:48:22;;;;;;;9.33;8.30;;;15.00;99.90;;;;;;5053318;28;20413;-74
2023/06/09 01:51:08;;;;;;;11.13;7.10;;;15.10;99.90;;;;;;5054320;28;20292;-75
2023/06/09 01:53:38;;;;;;;9.30;7.50;;;15.00;99.90;;;;;;5054448;28;20417;-75
2023/06/09 01:56:27;;;;;;;8.03;7.23;;;15.00;99.90;;;;;;5054326;28;20983;-74
2023/06/09 01:59:00;;;;;;;9.47;7.80;;;15.00;99.90;;;;;;5054491;28;21039;-75
2023/06/09 02:01:26;;;;;;;9.30;7.60;;;15.00;99.90;;;;;;5054081;28;20809;-75
2023/06/09 02:03:54;;;;;;;7.13;5.97;;;14.90;99.90;;;;;;5053771;28;20948;-75
2023/06/09 02:06:20;;;;;;;7.93;6.57;;;14.90;99.90;;;;;;5054121;28;20409;-75
2023/06/09 02:08:46;;;;;;;8.57;7.70;;;14.90;99.90;;;;;;5054097;28;20405;-75
2023/06/09 02:11:11;;;;;;;9.20;7.90;;;14.90;99.90;;;;;;5052531;28;20772;-75
2023/06/09 02:13:37;;;;;;;8.43;7.63;;;14.90;99.90;;;;;;5054011;28;20448;-75
2023/06/09 02:16:03;;;;;;;9.40;8.23;;;14.90;99.90;;;;;;5053873;28;20206;-75
2023/06/09 02:18:29;;;;;;;9.80;8.90;;;14.90;99.90;;;;;;5054039;28;20537;-75
2023/06/09 02:20:54;;;;;;;9.43;8.53;;;14.90;99.90;;;;;;5053565;28;20166;-75
2023/06/09 02:23:21;;;;;;;8.43;7.53;;;14.90;99.90;;;;;;5053841;28;20280;-75
2023/06/09 02:25:47;;;;;;;8.57;7.87;;;14.90;99.90;;;;;;5052598;28;20178;-75
2023/06/09 02:28:13;;;;;;;9.00;8.07;;;14.90;99.90;;;;;;5052322;28;20504;-74
2023/06/09 02:30:39;;;;;;;9.20;8.03;;;14.80;99.90;;;;;;5053503;28;20818;-75
2023/06/09 02:33:05;;;;;;;13.40;10.73;;;14.80;99.90;;;;;;5053670;28;20543;-74
2023/06/09 02:35:31;;;;;;;10.53;9.47;;;14.80;99.90;;;;;;5053674;28;20201;-74
2023/06/09 02:37:57;;;;;;;10.90;9.80;;;14.80;99.90;;;;;;5053632;28;20178;-74
2023/06/09 02:40:26;;;;;;;11.60;10.33;;;14.80;99.90;;;;;;5052131;28;20175;-74
2023/06/09 02:42:51;;;;;;;9.80;8.90;;;14.80;99.90;;;;;;5053499;28;20425;-74
2023/06/09 02:45:17;;;;;;;9.27;8.37;;;14.80;99.90;;;;;;5053483;28;20505;-74
2023/06/09 02:47:43;;;;;;;8.60;7.80;;;14.80;99.90;;;;;;5053529;28;20258;-74
2023/06/09 02:50:09;;;;;;;11.20;7.87;;;14.70;99.90;;;;;;5053321;28;20684;-74
2023/06/09 02:52:34;;;;;;;10.70;8.20;;;14.70;99.90;;;;;;5051749;28;20200;-74
2023/06/09 02:55:00;;;;;;;10.20;9.00;;;14.70;99.90;;;;;;5052003;28;20457;-74
2023/06/09 02:57:27;;;;;;;16.00;9.37;;;14.70;99.90;;;;;;5053339;28;20635;-74
2023/06/09 02:59:53;;;;;;;10.27;7.03;;;14.70;99.90;;;;;;5053377;28;20179;-74
2023/06/09 03:02:18;;;;;;;7.87;7.20;;;14.70;99.90;;;;;;5052872;28;20512;-74
2023/06/09 03:04:44;;;;;;;9.60;8.63;;;14.70;99.90;;;;;;5053106;28;20171;-74
2023/06/09 03:07:13;;;;;;;9.10;7.77;;;14.70;99.90;;;;;;5053001;28;20643;-74
2023/06/09 03:09:39;;;;;;;10.33;9.20;;;14.70;99.90;;;;;;5053086;28;20246;-74
2023/06/09 03:12:06;;;;;;;28.60;18.90;;;14.70;99.90;;;;;;5052665;28;20425;-74
2023/06/09 03:14:32;;;;;;;13.37;10.67;;;14.70;99.90;;;;;;5051914;28;20461;-74
2023/06/09 03:16:58;;;;;;;12.17;10.30;;;14.70;99.90;;;;;;5052925;28;20423;-74
2023/06/09 03:19:24;;;;;;;11.43;8.60;;;14.70;99.90;;;;;;5052861;28;20398;-74
2023/06/09 03:21:52;;;;;;;8.80;7.87;;;14.70;99.90;;;;;;5052449;28;20482;-74
2023/06/09 03:24:19;;;;;;;10.40;9.30;;;14.60;99.90;;;;;;5052749;28;20450;-74
2023/06/09 03:26:44;;;;;;;8.57;7.67;;;14.60;99.90;;;;;;5052756;28;20784;-74
2023/06/09 03:29:10;;;;;;;12.07;10.00;;;14.60;99.90;;;;;;5052681;28;20447;-74
2023/06/09 03:31:36;;;;;;;12.10;8.93;;;14.60;99.90;;;;;;5052318;28;20461;-74
2023/06/09 03:34:01;;;;;;;9.80;8.90;;;14.70;99.90;;;;;;5052541;28;20171;-74
2023/06/09 03:36:27;;;;;;;10.70;9.07;;;14.60;99.90;;;;;;5052498;28;20167;-74
2023/06/09 03:38:54;;;;;;;10.47;8.60;;;14.60;99.90;;;;;;5052538;28;20224;-74
2023/06/09 03:41:21;;;;;;;9.43;8.50;;;14.60;99.90;;;;;;5052139;28;20820;-74
2023/06/09 03:43:47;;;;;;;9.77;8.40;;;14.70;99.90;;;;;;5052448;28;20450;-74
2023/06/09 03:46:12;;;;;;;9.87;8.67;;;14.60;99.90;;;;;;5052371;28;20401;-74
2023/06/09 03:48:39;;;;;;;7.90;7.20;;;14.70;99.90;;;;;;5052390;28;20173;-74
2023/06/09 03:51:05;;;;;;;9.10;8.20;;;14.60;99.90;;;;;;5052049;28;20190;-74
2023/06/09 03:53:30;;;;;;;13.37;9.93;;;14.70;99.90;;;;;;5052319;28;20453;-74
2023/06/09 03:55:56;;;;;;;9.80;8.70;;;14.70;99.90;;;;;;5052592;28;20202;-74
2023/06/09 03:58:22;;;;;;;9.30;8.40;;;14.70;99.90;;;;;;5052171;28;20166;-74
2023/06/09 04:00:48;;;;;;;8.80;7.90;;;14.70;99.90;;;;;;5050674;28;20258;-74
2023/06/09 04:03:13;;;;;;;10.00;8.67;;;14.70;99.90;;;;;;5050759;28;20866;-74
2023/06/09 04:05:39;;;;;;;15.23;9.93;;;14.70;99.90;;;;;;5050773;28;20163;-74
2023/06/09 04:08:04;;;;;;;10.33;8.80;;;14.70;99.90;;;;;;5051104;28;20513;-74
2023/06/09 04:10:30;;;;;;;59.83;38.00;;;14.70;99.90;;;;;;5050505;28;20166;-74
2023/06/09 04:12:55;;;;;;;32.77;22.37;;;14.80;99.90;;;;;;5050609;28;20301;-74
2023/06/09 04:15:21;;;;;;;20.53;15.00;;;14.80;99.90;;;;;;5050762;28;20675;-74
2023/06/09 04:17:47;;;;;;;11.50;10.30;;;14.80;99.90;;;;;;5051955;28;20563;-74
2023/06/09 04:20:12;;;;;;;9.93;8.37;;;14.90;99.90;;;;;;5051879;28;20266;-74
2023/06/09 04:22:47;;;;;;;19.10;9.20;;;14.90;99.90;;;;;;5050382;28;20673;-74
2023/06/09 04:25:13;;;;;;;10.77;9.27;;;15.00;99.90;;;;;;5051946;28;20186;-74
2023/06/09 04:27:39;;;;;;;12.33;8.93;;;15.00;99.90;;;;;;5050572;28;20417;-74
2023/06/09 04:30:05;;;;;;;9.67;8.50;;;15.10;99.90;;;;;;5050583;28;20413;-74
2023/06/09 04:32:33;;;;;;;15.70;9.17;;;15.10;99.90;;;;;;5051542;28;20183;-74
2023/06/09 04:34:59;;;;;;;10.40;9.00;;;15.20;99.90;;;;;;5051889;28;20934;-74
2023/06/09 04:37:25;;;;;;;13.87;9.97;;;15.30;99.90;;;;;;5050722;28;20409;-74
2023/06/09 04:39:51;;;;;;;8.60;7.73;;;15.40;99.90;;;;;;5050555;28;20409;-74
2023/06/09 04:42:19;;;;;;;12.03;8.87;;;15.50;99.90;;;;;;5050121;28;20179;-74
2023/06/09 04:44:47;;;;;;;11.17;9.27;;;15.50;99.90;;;;;;5051751;28;20605;-74
2023/06/09 04:47:17;;;;;;;10.67;9.57;;;15.60;99.90;;;;;;5050429;28;20739;-74
2023/06/09 04:49:43;;;;;;;15.70;9.40;;;15.70;99.90;;;;;;5051626;28;20401;-74
2023/06/09 04:52:10;;;;;;;12.50;11.00;;;15.80;99.90;;;;;;5051407;28;21059;-74
2023/06/09 04:54:36;;;;;;;13.13;10.13;;;15.90;99.90;;;;;;5051531;28;20506;-74
2023/06/09 04:57:03;;;;;;;10.30;9.30;;;16.00;99.90;;;;;;5051597;28;20910;-74
2023/06/09 04:59:28;;;;;;;13.20;11.83;;;16.10;99.90;;;;;;5050269;28;20174;-74
2023/06/09 05:01:55;;;;;;;13.17;11.40;;;16.20;99.90;;;;;;5051303;28;20421;-74
2023/06/09 05:04:20;;;;;;;11.83;9.90;;;16.30;99.90;;;;;;5051468;28;20228;-75
2023/06/09 05:06:46;;;;;;;15.30;13.47;;;16.40;99.90;;;;;;5051583;28;20397;-75
2023/06/09 05:09:12;;;;;;;13.83;11.70;;;16.40;99.90;;;;;;5050225;28;20171;-75
2023/06/09 05:11:37;;;;;;;14.07;11.77;;;16.50;99.90;;;;;;5049872;28;20190;-74
2023/06/09 05:14:07;;;;;;;14.83;12.30;;;16.60;99.90;;;;;;5051239;28;20421;-74
2023/06/09 05:16:36;;;;;;;12.83;11.50;;;16.70;99.90;;;;;;5051431;28;20155;-75
2023/06/09 05:19:02;;;;;;;16.67;12.87;;;16.80;99.90;;;;;;5051426;28;20745;-75
2023/06/09 05:21:28;;;;;;;19.00;11.83;;;17.00;99.90;;;;;;5050975;28;20409;-75
2023/06/09 05:23:53;;;;;;;12.87;11.53;;;17.10;99.90;;;;;;5051306;28;20770;-75
2023/06/09 05:26:19;;;;;;;13.83;11.87;;;17.10;99.90;;;;;;5051394;28;20523;-75
2023/06/09 05:28:48;;;;;;;12.83;11.63;;;17.20;99.90;;;;;;5051305;28;20164;-75
2023/06/09 05:31:14;;;;;;;12.17;11.03;;;17.30;99.90;;;;;;5050968;28;20394;-75
2023/06/09 05:33:42;;;;;;;13.37;11.93;;;17.40;99.90;;;;;;5050004;28;20437;-75
2023/06/09 05:36:08;;;;;;;13.07;11.83;;;17.50;99.90;;;;;;5051224;28;20535;-75
2023/06/09 05:38:34;;;;;;;16.30;11.13;;;17.60;99.90;;;;;;5052785;28;20428;-75
2023/06/09 05:40:59;;;;;;;14.10;12.60;;;17.80;99.90;;;;;;5054474;28;20397;-75
2023/06/09 05:43:26;;;;;;;11.83;10.50;;;17.90;99.90;;;;;;5054682;28;20232;-75
2023/06/09 05:45:52;;;;;;;16.23;11.80;;;18.00;99.90;;;;;;5053463;28;20553;-75
2023/06/09 05:48:18;;;;;;;11.13;10.03;;;18.10;99.90;;;;;;5053347;28;20402;-75
2023/06/09 05:50:45;;;;;;;11.00;9.90;;;18.10;99.90;;;;;;5054271;28;20175;-75
2023/06/09 05:53:10;;;;;;;11.80;9.60;;;18.40;99.90;;;;;;5054478;28;20182;-75
2023/06/09 05:55:36;;;;;;;13.07;11.67;;;18.70;99.90;;;;;;5054398;28;20649;-75
2023/06/09 05:58:02;;;;;;;11.30;10.13;;;18.90;99.90;;;;;;5054519;28;20183;-76
2023/06/09 06:00:30;;;;;;;11.47;10.37;;;19.20;99.90;;;;;;5052834;28;20167;-75
2023/06/09 06:03:00;;;;;;;9.67;8.60;;;19.60;99.90;;;;;;5054269;28;20562;-76
2023/06/09 06:05:26;;;;;;;8.30;7.50;;;20.30;99.90;;;;;;5053004;28;20926;-76
2023/06/09 06:07:52;;;;;;;10.67;8.17;;;21.20;99.90;;;;;;5052960;28;20934;-77
2023/06/09 06:10:17;;;;;;;7.43;6.73;;;22.10;99.90;;;;;;5052930;28;20414;-77
2023/06/09 06:12:43;;;;;;;6.90;6.20;;;22.60;99.90;;;;;;5053848;28;20183;-77
2023/06/09 06:15:09;;;;;;;7.30;6.60;;;23.40;99.90;;;;;;5054087;28;20195;-76
2023/06/09 06:17:34;;;;;;;7.80;6.13;;;24.30;99.90;;;;;;5052803;28;20261;-77
2023/06/09 06:20:00;;;;;;;8.00;7.20;;;25.00;99.90;;;;;;5052786;28;20467;-77
2023/06/09 06:22:26;;;;;;;8.07;7.20;;;25.70;99.90;;;;;;5052417;28;20186;-77
2023/06/09 06:24:51;;;;;;;6.30;5.73;;;26.20;99.90;;;;;;5053863;28;20240;-77
2023/06/09 06:27:17;;;;;;;8.30;6.60;;;26.70;99.90;;;;;;5053934;28;20198;-77
2023/06/09 06:29:43;;;;;;;6.60;6.00;;;27.40;99.90;;;;;;5053865;28;20174;-77
2023/06/09 06:32:08;;;;;;;7.17;6.50;;;27.90;99.90;;;;;;5053500;28;20187;-77
2023/06/09 06:34:34;;;;;;;6.20;5.60;;;28.60;99.10;;;;;;5053737;28;20688;-77
2023/06/09 06:37:00;;;;;;;9.53;5.67;;;29.20;95.70;;;;;;5053830;28;20163;-77
2023/06/09 06:39:25;;;;;;;6.07;5.57;;;29.90;88.50;;;;;;5052301;28;20268;-77
2023/06/09 06:41:51;;;;;;;8.03;7.33;;;30.40;75.30;;;;;;5052031;28;20425;-77
2023/06/09 06:44:17;;;;;;;7.20;6.43;;;30.30;61.70;;;;;;5053603;28;20178;-78
2023/06/09 06:46:42;;;;;;;6.33;5.70;;;30.30;59.50;;;;;;5052312;28;20171;-77
2023/06/09 06:49:08;;;;;;;6.90;6.13;;;30.40;59.80;;;;;;5057008;28;20175;-79
2023/06/09 06:51:33;;;;;;;5.77;5.37;;;30.80;57.30;;;;;;5057728;28;20273;-77
2023/06/09 06:53:59;;;;;;;5.23;4.83;;;31.30;57.10;;;;;;5053243;28;20171;-78
2023/06/09 06:56:25;;;;;;;5.40;5.00;;;32.00;56.40;;;;;;5056303;28;20908;-75
2023/06/09 06:58:52;;;;;;;6.60;6.10;;;32.70;55.50;;;;;;5053319;28;20232;-77
2023/06/09 07:01:20;;;;;;;6.30;5.80;;;33.20;54.10;;;;;;5052949;28;20492;-75
2023/06/09 07:03:45;;;;;;;5.70;5.20;;;33.40;51.30;;;;;;5053264;28;20405;-75
2023/06/09 07:06:11;;;;;;;6.07;5.67;;;34.20;51.70;;;;;;5051733;28;20405;-70
2023/06/09 07:08:37;;;;;;;5.13;4.67;;;34.80;49.00;;;;;;5052826;28;20541;-69
2023/06/09 07:11:02;;;;;;;6.40;5.90;;;34.90;47.70;;;;;;5052872;28;20163;-70
2023/06/09 07:13:28;;;;;;;5.10;4.70;;;35.50;47.90;;;;;;5052835;28;20263;-69
2023/06/09 07:15:53;;;;;;;6.20;5.07;;;35.90;46.90;;;;;;5052914;28;20202;-70
2023/06/09 07:18:19;;;;;;;5.13;4.73;;;36.40;45.90;;;;;;5052865;28;20167;-69
2023/06/09 07:20:44;;;;;;;5.73;4.57;;;36.90;45.30;;;;;;5052566;28;20159;-69
2023/06/09 07:23:10;;;;;;;5.47;5.07;;;37.30;43.20;;;;;;5052690;28;20182;-69
2023/06/09 07:25:36;;;;;;;5.60;5.20;;;37.00;40.00;;;;;;5052791;28;20174;-71
2023/06/09 07:28:02;;;;;;;6.00;4.73;;;36.90;38.60;;;;;;5052748;28;20171;-71
2023/06/09 07:30:27;;;;;;;5.10;4.73;;;36.60;39.10;;;;;;5052436;28;20194;-69
2023/06/09 07:32:53;;;;;;;5.20;4.80;;;36.40;38.30;;;;;;5051221;28;20469;-70
2023/06/09 07:35:19;;;;;;;4.97;4.57;;;36.80;40.00;;;;;;5051261;28;20190;-70
2023/06/09 07:37:46;;;;;;;4.90;4.50;;;36.80;38.50;;;;;;5052514;28;20163;-69
2023/06/09 07:40:12;;;;;;;5.07;4.70;;;36.90;39.00;;;;;;5052588;28;20405;-69
2023/06/09 07:42:38;;;;;;;4.53;4.23;;;37.50;39.20;;;;;;5052164;28;20421;-69
2023/06/09 07:45:04;;;;;;;5.00;4.70;;;38.10;38.80;;;;;;5052563;28;21182;-72
2023/06/09 07:47:30;;;;;;;4.30;4.00;;;38.80;37.90;;;;;;5052532;28;20932;-73
2023/06/09 07:49:56;;;;;;;5.07;4.57;;;39.50;37.30;;;;;;5052473;28;20489;-72
2023/06/09 07:52:21;;;;;;;4.70;4.40;;;40.00;36.10;;;;;;5051992;28;20194;-73
2023/06/09 07:54:47;;;;;;;4.87;4.57;;;40.60;36.00;;;;;;5052193;28;20233;-71
2023/06/09 07:57:12;;;;;;;4.67;4.27;;;40.80;33.90;;;;;;5052341;28;20167;-71
2023/06/09 07:59:38;;;;;;;5.60;5.20;;;41.00;33.90;;;;;;5052211;28;20167;-71
2023/06/09 08:02:04;;;;;;;6.00;5.50;;;41.70;33.10;;;;;;5051395;28;20652;-73
2023/06/09 08:04:30;;;;;;;5.77;5.33;;;41.70;31.60;;;;;;5050936;28;20177;-73
2023/06/09 08:06:59;;;;;;;4.93;4.57;;;41.60;31.70;;;;;;5052075;28;20174;-70
2023/06/09 08:09:27;;;;;;;4.90;4.50;;;41.90;31.80;;;;;;5052151;28;20383;-70
2023/06/09 08:11:53;;;;;;;4.93;4.60;;;42.10;31.30;;;;;;5051707;28;20429;-70
2023/06/09 08:14:19;;;;;;;5.50;5.10;;;42.70;32.00;;;;;;5051913;28;20434;-73
2023/06/09 08:16:45;;;;;;;5.20;4.90;;;43.20;31.10;;;;;;5050713;28;20536;-73
2023/06/09 08:19:11;;;;;;;5.63;5.23;;;43.00;30.20;;;;;;5051998;28;20167;-70
2023/06/09 08:21:42;;;;;;;5.20;4.90;;;42.60;29.70;;;;;;5051566;28;20417;-70
2023/06/09 08:24:08;;;;;;;5.00;4.60;;;42.40;30.00;;;;;;5052015;28;20155;-70
2023/06/09 08:26:34;;;;;;;5.20;4.80;;;42.60;30.50;;;;;;5050425;28;20394;-69
2023/06/09 08:29:01;;;;;;;4.90;4.53;;;43.20;30.90;;;;;;5051887;28;20397;-72
2023/06/09 08:31:27;;;;;;;5.17;4.77;;;43.60;29.70;;;;;;5051505;28;20170;-71
2023/06/09 08:33:54;;;;;;;4.67;4.37;;;43.70;29.30;;;;;;5051897;28;20372;-70
2023/06/09 08:36:20;;;;;;;5.60;5.10;;;44.00;28.30;;;;;;5050659;28;20191;-71
2023/06/09 08:38:46;;;;;;;5.67;5.17;;;43.30;28.10;;;;;;5051770;28;20426;-72
2023/06/09 08:41:12;;;;;;;4.43;4.13;;;43.70;29.10;;;;;;5051622;28;20372;-70
2023/06/09 08:43:38;;;;;;;4.87;4.57;;;43.60;28.60;;;;;;5050808;28;20198;-70
2023/06/09 08:46:05;;;;;;;5.40;5.00;;;43.70;28.20;;;;;;5051912;28;20397;-69
2023/06/09 08:48:32;;;;;;;4.70;4.40;;;43.60;28.50;;;;;;5051315;28;20199;-69
2023/06/09 08:51:00;;;;;;;4.80;4.40;;;44.40;28.60;;;;;;5050650;28;20493;-68
2023/06/09 08:53:26;;;;;;;5.30;4.90;;;44.50;27.50;;;;;;5051270;28;20415;-69
2023/06/09 08:55:53;;;;;;;5.10;4.70;;;45.20;27.70;;;;;;5051125;28;20940;-69
2023/06/09 08:58:21;;;;;;;5.83;5.37;;;44.80;26.90;;;;;;5051380;28;20583;-69
2023/06/09 09:00:48;;;;;;;5.90;5.40;;;45.90;28.00;;;;;;5051025;28;20472;-69
2023/06/09 09:03:15;;;;;;;5.37;4.87;;;46.60;26.60;;;;;;5051132;28;20534;-70
2023/06/09 09:05:41;;;;;;;5.00;4.70;;;47.20;25.90;;;;;;5051342;28;20380;-70
2023/06/09 09:08:08;;;;;;;5.20;4.70;;;48.10;26.00;;;;;;5051390;28;20438;-71
2023/06/09 09:10:34;;;;;;;5.37;5.07;;;48.70;25.50;;;;;;5051146;28;20170;-71
2023/06/09 09:12:59;;;;;;;4.67;4.37;;;49.00;25.10;;;;;;5051937;28;20441;-71
2023/06/09 09:15:25;;;;;;;6.23;5.87;;;50.10;25.30;;;;;;5055242;28;20549;-71
2023/06/09 09:17:51;;;;;;;5.10;4.70;;;49.90;23.40;;;;;;5055007;28;20202;-70
2023/06/09 09:20:18;;;;;;;5.53;5.23;;;50.10;23.60;;;;;;5055232;28;20900;-70
2023/06/09 09:22:44;;;;;;;4.90;4.60;;;48.80;23.60;;;;;;5054811;28;20277;-70
2023/06/09 09:25:20;;;;;;;6.77;6.17;;;49.10;23.90;;;;;;5055105;28;20376;-68
2023/06/09 09:28:01;;;;;;;5.90;5.50;;;49.10;24.00;;;;;;5055143;28;20762;-69
2023/06/09 09:30:44;;;;;;;5.20;4.80;;;49.20;23.80;;;;;;5054510;28;20368;-70
2023/06/09 09:33:15;;;;;;;5.30;5.00;;;49.80;24.90;;;;;;5055580;28;20431;-69
2023/06/09 09:35:44;;;;;;;5.30;4.90;;;50.80;25.50;;;;;;5055002;28;20376;-69
2023/06/09 09:38:16;;;;;;;5.73;5.43;;;50.80;23.50;;;;;;5054924;28;20748;-68
2023/06/09 09:40:56;;;;;;;4.60;4.30;;;51.10;24.20;;;;;;5054416;28;20404;-68
2023/06/09 09:43:25;;;;;;;5.00;4.57;;;51.40;22.90;;;;;;5054661;28;20399;-69
2023/06/09 09:45:52;;;;;;;5.70;5.20;;;50.20;22.50;;;;;;5054530;28;20481;-68
2023/06/09 09:48:21;;;;;;;5.10;4.80;;;49.90;22.80;;;;;;5054797;28;20393;-68
2023/06/09 09:50:48;;;;;;;5.00;4.70;;;48.70;23.40;;;;;;5054265;28;20436;-69
2023/06/09 09:53:15;;;;;;;5.60;5.20;;;49.00;24.00;;;;;;5054501;28;20388;-69
2023/06/09 09:55:45;;;;;;;5.03;4.73;;;48.70;23.80;;;;;;5054516;28;20463;-68
2023/06/09 09:58:12;;;;;;;5.10;4.73;;;48.90;24.10;;;;;;5054491;28;20747;-69
2023/06/09 10:00:41;;;;;;;5.23;4.93;;;49.60;24.60;;;;;;5054064;28;20372;-70
2023/06/09 10:03:18;;;;;;;5.40;5.00;;;50.30;23.90;;;;;;5053920;28;20411;-70
2023/06/09 10:05:46;;;;;;;4.67;4.37;;;51.00;23.70;;;;;;5054060;28;20415;-70
2023/06/09 10:08:26;;;;;;;4.93;4.60;;;51.20;23.10;;;;;;5056023;28;20406;-70
2023/06/09 10:10:56;;;;;;;4.37;4.17;;;50.90;21.80;;;;;;5074025;28;20397;-71
2023/06/09 10:13:22;;;;;;;4.90;4.50;;;50.40;22.00;;;;;;5073913;28;20446;-70
2023/06/09 10:15:51;;;;;;;5.17;4.87;;;50.60;23.00;;;;;;5074184;28;20399;-71
2023/06/09 10:18:17;;;;;;;5.00;4.60;;;49.60;22.40;;;;;;5074000;28;20818;-70
2023/06/09 10:20:44;;;;;;;5.10;4.80;;;49.40;22.00;;;;;;5073653;28;20466;-69
2023/06/09 10:23:10;;;;;;;7.93;4.60;;;49.00;22.60;;;;;;5073984;28;20482;-69
2023/06/09 10:25:36;;;;;;;4.40;4.10;;;49.90;23.30;;;;;;5073498;28;20522;-69
2023/06/09 10:28:02;;;;;;;5.30;4.90;;;50.40;22.30;;;;;;5073877;28;20165;-69
2023/06/09 10:30:27;;;;;;;4.50;4.30;;;50.30;22.20;;;;;;5073603;28;20376;-69
2023/06/09 10:33:03;;;;;;;5.53;4.60;;;50.50;22.00;;;;;;5073728;28;20212;-70
2023/06/09 10:35:29;;;;;;;4.67;4.37;;;50.40;22.40;;;;;;5073882;28;20241;-69
2023/06/09 10:37:57;;;;;;;4.70;4.40;;;50.80;22.40;;;;;;5073940;28;20367;-71
2023/06/09 10:40:29;;;;;;;4.57;4.27;;;51.50;22.20;;;;;;5074030;28;20765;-71
2023/06/09 10:43:11;;;;;;;4.97;4.67;;;51.80;21.80;;;;;;5073546;28;20435;-71
2023/06/09 10:45:54;;;;;;;4.50;4.23;;;52.10;21.10;;;;;;5073608;28;20455;-71
2023/06/09 10:48:54;;;;;;;5.10;4.80;;;52.60;21.30;;;;;;5073523;28;20392;-71
2023/06/09 10:51:40;;;;;;;4.87;4.57;;;52.40;21.30;;;;;;5073139;28;20392;-70
2023/06/09 10:54:17;;;;;;;4.73;4.53;;;52.80;21.40;;;;;;5073118;28;20462;-70
2023/06/09 10:56:47;;;;;;;4.50;4.20;;;53.40;22.20;;;;;;5073425;28;20432;-70
2023/06/09 10:59:25;;;;;;;4.70;4.40;;;54.20;21.50;;;;;;5073242;28;20399;-70
2023/06/09 11:02:02;;;;;;;5.13;4.83;;;54.60;20.90;;;;;;5072963;28;20464;-69
2023/06/09 11:04:45;;;;;;;4.33;4.13;;;55.00;21.00;;;;;;5073050;28;20444;-70
2023/06/09 11:07:25;;;;;;;4.80;4.50;;;54.30;20.30;;;;;;5073096;28;20477;-70
2023/06/09 11:09:51;;;;;;;5.13;4.83;;;54.30;20.40;;;;;;5073052;28;20510;-70
2023/06/09 11:12:29;;;;;;;4.87;4.47;;;55.00;20.70;;;;;;5072558;28;20952;-70
2023/06/09 11:14:58;;;;;;;5.00;4.70;;;55.90;21.00;;;;;;5072657;28;20178;-70
2023/06/09 11:17:29;;;;;;;5.70;5.30;;;56.60;20.60;;;;;;5072609;28;20403;-70
2023/06/09 11:20:09;;;;;;;5.17;4.87;;;57.00;19.80;;;;;;5072769;28;20553;-70
2023/06/09 11:22:41;;;;;;;5.80;5.50;;;57.50;19.80;;;;;;5072497;28;20506;-70
2023/06/09 11:25:19;;;;;;;5.37;5.00;;;57.90;20.30;;;;;;5072598;28;20878;-70
2023/06/09 11:28:09;;;;;;;5.30;5.10;;;58.40;19.90;;;;;;5072795;28;20395;-71
2023/06/09 11:31:02;;;;;;;4.87;4.67;;;58.70;19.40;;;;;;5070734;28;20798;-71
2023/06/09 11:33:48;;;;;;;5.40;5.10;;;59.00;19.70;;;;;;5072503;28;20408;-70
2023/06/09 11:36:21;;;;;;;6.00;5.70;;;59.00;19.70;;;;;;5071908;28;20469;-71
2023/06/09 11:38:48;;;;;;;5.27;4.97;;;58.40;18.30;;;;;;5072556;28;20486;-70
2023/06/09 11:41:19;;;;;;;5.03;4.73;;;57.30;18.90;;;;;;5072233;28;20896;-71
2023/06/09 11:43:52;;;;;;;4.57;4.27;;;56.90;19.00;;;;;;5072390;28;20750;-70
2023/06/09 11:46:19;;;;;;;5.60;5.20;;;57.10;20.10;;;;;;5072529;28;20556;-70
2023/06/09 11:49:21;;;;;;;5.03;4.67;;;56.20;19.00;;;;;;5072334;28;20808;-70
2023/06/09 11:51:59;;;;;;;5.00;4.70;;;55.20;19.00;;;;;;5060592;28;20439;-69
2023/06/09 11:54:45;;;;;;;5.57;5.27;;;54.80;19.70;;;;;;5072339;28;20395;-70
2023/06/09 11:57:12;;;;;;;5.30;4.80;;;55.00;19.30;;;;;;5072334;28;20396;-69
2023/06/09 11:59:38;;;;;;;4.90;4.60;;;55.40;19.60;;;;;;5072241;28;20781;-70
2023/06/09 12:02:04;;;;;;;5.10;4.70;;;55.50;19.40;;;;;;5070664;28;20432;-70
2023/06/09 12:04:30;;;;;;;6.13;5.73;;;55.70;18.90;;;;;;5072266;28;20670;-70
2023/06/09 12:06:55;;;;;;;4.97;4.73;;;56.10;19.30;;;;;;5072304;28;20162;-71
2023/06/09 12:09:22;;;;;;;5.00;4.50;;;56.50;19.20;;;;;;5072149;28;20189;-70
2023/06/09 12:11:50;;;;;;;4.93;4.63;;;57.20;19.30;;;;;;5071830;28;20709;-70
2023/06/09 12:14:15;;;;;;;4.80;4.50;;;57.70;18.60;;;;;;5070594;28;20526;-69
2023/06/09 12:16:41;;;;;;;4.70;4.40;;;57.60;18.30;;;;;;5072287;28;21034;-70
2023/06/09 12:19:08;;;;;;;4.10;3.90;;;56.10;18.70;;;;;;5072205;28;20710;-70
2023/06/09 12:21:34;;;;;;;4.97;4.77;;;54.80;18.10;;;;;;5068769;28;20627;-70
2023/06/09 12:23:59;;;;;;;4.43;4.13;;;54.20;18.60;;;;;;5051953;28;20404;-70
2023/06/09 12:26:25;;;;;;;4.20;4.00;;;52.40;18.60;;;;;;5052043;28;20256;-69
2023/06/09 12:28:54;;;;;;;4.87;4.57;;;52.10;19.70;;;;;;5051988;28;20261;-70
2023/06/09 12:31:20;;;;;;;4.07;3.77;;;52.50;19.70;;;;;;5051495;28;20956;-70
2023/06/09 12:33:47;;;;;;;4.70;4.40;;;52.60;19.80;;;;;;5051776;28;20405;-70
2023/06/09 12:36:13;;;;;;;4.90;4.60;;;52.80;19.50;;;;;;5051743;28;20440;-70
2023/06/09 12:38:45;;;;;;;4.13;3.93;;;53.50;20.40;;;;;;5051830;28;20445;-70
2023/06/09 12:41:13;;;;;;;4.70;4.40;;;54.30;19.70;;;;;;5051543;28;20181;-69
2023/06/09 12:43:52;;;;;;;4.50;4.20;;;54.20;18.70;;;;;;5051724;28;20787;-69
2023/06/09 12:46:27;;;;;;;19.27;17.67;;;52.30;18.40;;;;;;5051439;28;20531;-69
2023/06/09 12:49:06;;;;;;;5.07;4.67;;;51.50;19.60;;;;;;5055734;28;20400;-70